• Join FlightAware (Why Join?)
  • Login
  • US Flag 
04:05AM EDT


 

Airport Tracker/Info


-or-


 

Live Flight TrackerFlight Track Log ✈ SWA709 ✈ 02-May-2013 ✈ KAUS - KLAS

Flight Track Log - Related Links

Times and Time Zones

All times are in EDT time to prevent confusion due to time zone crossing. See the SWA709 flight status page for this flight to view local times or setup timezone preferences in your user account.

Time Position Orientation Groundspeed Altitude Reporting Facility
EDT Latitude Longitude Course Direction KTS MPH feet Rate Location/Type
07:25AM 30.2689 -97.7594 278° West 219 252 6,100  Level Houston Center
07:26AM 30.2817 -97.8389 281° West 240 276 8,800 2,700 Climbing Houston Center
07:27AM 30.2997 -97.9506 281° West 299 344 11,600 3,120 Climbing Houston Center
07:28AM 30.3186 -98.0622 281° West 346 398 15,100 2,940 Climbing Houston Center
07:29AM 30.4129 -97.8752 276° West  Level FlightAware Approximate
07:29AM 30.3361 -98.1633 281° West 361 415 17,600  Level Houston Center
07:30AM 30.4167 -98.0006 278° West  Level FlightAware Approximate
07:30AM 30.3561 -98.2864 281° West 380 437 20,300  Level Houston Center
07:31AM 30.4315 -98.1252 278° West  Level FlightAware Approximate
07:31AM 30.3803 -98.4386 280° West 407 468 23,400  Level Houston Center
07:32AM 30.4017 -98.5708 281° West 412 474 25,600 1,860 Climbing Houston Center
07:33AM 30.4233 -98.7072 280° West 425 489 27,200 1,560 Climbing Houston Center
07:34AM 30.4458 -98.8517 280° West 447 514 28,800 1,620 Climbing Houston Center
07:35AM 30.4711 -98.9975 281° West 456 525 30,600 2,160 Climbing Houston Center
07:36AM 30.4947 -99.1400 281° West 447 514 33,200 2,100 Climbing Houston Center
07:37AM 30.5122 -99.2569 280° West 430 495 34,900 1,320 Climbing Houston Center
07:38AM 30.5325 -99.3892 280° West 422 486 36,000 1,260 Climbing Houston Center
07:39AM 30.5589 -99.5514 281° West 428 493 37,500 960 Climbing Houston Center
07:41AM 30.5789 -99.6864 280° West 428 493 38,000 240 Climbing Houston Center
07:42AM 30.5997 -99.8217 280° West 430 495 38,000  Level Houston Center
07:43AM 30.6278 -99.9536 284° West 426 490 38,000  Level Houston Center
07:44AM 30.6572 -100.0847 285° West 425 489 38,000  Level Houston Center
07:45AM 30.6833 -100.2125 283° West 413 475 38,000  Level Houston Center
07:46AM 30.7117 -100.3469 284° West 431 496 38,000  Level Houston Center
07:47AM 30.7394 -100.4783 284° West 427 491 38,000  Level Houston Center
07:48AM 30.7664 -100.6094 283° West 424 488 38,000  Level Houston Center
07:49AM 30.7989 -100.7681 283° West 424 488 38,000  Level Houston Center
07:50AM 30.8267 -100.8981 284° West 421 484 38,000  Level Houston Center
07:51AM 30.8525 -101.0303 283° West 424 488 38,000  Level Houston Center
07:52AM 30.8814 -101.1597 285° West 418 481 38,000  Level Houston Center
07:53AM 30.9094 -101.2903 284° West 419 482 38,000  Level Houston Center
07:54AM 30.9347 -101.4311 282° West 423 487 38,000  Level Houston Center
07:54AM 30.9447 -101.4819 283° West 420 483 38,000  Level Albuquerque Center
07:55AM 30.9775 -101.6408 284° West 420 483 38,000  Level Albuquerque Center
07:56AM 31.0042 -101.7725 283° West 419 482 38,000  Level Albuquerque Center
07:57AM 31.0294 -101.9050 283° West 419 482 38,000  Level Albuquerque Center
07:58AM 31.0525 -102.0244 283° West 423 487 38,000  Level Albuquerque Center
07:59AM 31.0781 -102.1519 283° West 411 473 38,000  Level Albuquerque Center
08:00AM 31.1031 -102.2794 283° West 405 466 38,000  Level Albuquerque Center
08:01AM 31.1281 -102.4083 283° West 406 467 38,000  Level Albuquerque Center
08:02AM 31.1522 -102.5400 282° West 411 473 38,000  Level Albuquerque Center
08:03AM 31.1764 -102.6625 283° West 405 466 38,000  Level Albuquerque Center
08:04AM 31.2258 -102.7833 296° West 409 471 38,000  Level Albuquerque Center
08:05AM 31.2864 -102.8969 302° West 410 472 38,000  Level Albuquerque Center
08:06AM 31.3447 -103.0075 302° West 403 464 38,000  Level Albuquerque Center
08:07AM 31.4042 -103.1194 302° West 403 464 38,000  Level Albuquerque Center
08:08AM 31.4625 -103.2317 301° West 403 464 38,000  Level Albuquerque Center
08:09AM 31.5222 -103.3425 302° West 402 463 38,000  Level Albuquerque Center
08:10AM 31.5814 -103.4569 301° West 400 460 38,000  Level Albuquerque Center
08:11AM 31.6389 -103.5664 302° West 396 456 38,000  Level Albuquerque Center
08:12AM 31.6950 -103.6764 301° West 393 452 38,000  Level Albuquerque Center
08:13AM 31.7519 -103.7844 302° West 388 447 38,000  Level Albuquerque Center
08:14AM 31.8064 -103.8908 301° West 384 442 38,000  Level Albuquerque Center
08:15AM 31.8622 -103.9978 302° West 384 442 38,000  Level Albuquerque Center
08:16AM 31.9197 -104.1069 302° West 389 448 38,000  Level Albuquerque Center
08:17AM 31.9758 -104.2156 301° West 390 449 38,000  Level Albuquerque Center
08:18AM 32.0417 -104.3458 301° West 389 448 38,000  Level Albuquerque Center
08:19AM 32.0961 -104.4536 301° West 387 445 38,000  Level Albuquerque Center
08:20AM 32.1531 -104.5647 301° West 393 452 38,000  Level Albuquerque Center
08:21AM 32.2086 -104.6736 301° West 390 449 38,000  Level Albuquerque Center
08:22AM 32.2644 -104.7800 302° West 386 444 38,000  Level Albuquerque Center
08:23AM 32.3197 -104.8908 301° West 390 449 38,000  Level Albuquerque Center
08:24AM 32.3733 -105.0003 300° West 388 447 38,000  Level Albuquerque Center
08:25AM 32.4289 -105.1111 301° West 392 451 38,000  Level Albuquerque Center
08:26AM 32.4839 -105.2222 300° West 394 453 38,000  Level Albuquerque Center
08:27AM 32.5375 -105.3300 301° West 385 443 38,000  Level Albuquerque Center
08:28AM 32.5908 -105.4381 300° West 382 440 38,000  Level Albuquerque Center
08:30AM 32.6444 -105.5467 300° West 382 440 38,000  Level Albuquerque Center
08:31AM 32.6972 -105.6547 300° West 381 438 38,000  Level Albuquerque Center
08:32AM 32.7508 -105.7614 301° West 379 436 38,000  Level Albuquerque Center
08:33AM 32.8036 -105.8703 300° West 381 438 38,000  Level Albuquerque Center
08:34AM 32.8628 -105.9892 301° West 381 438 38,000  Level Albuquerque Center
08:35AM 32.9147 -106.0956 300° West 376 433 38,000  Level Albuquerque Center
08:36AM 32.9678 -106.2039 300° West 379 436 38,000  Level Albuquerque Center
08:37AM 33.0203 -106.3128 300° West 381 438 38,000  Level Albuquerque Center
08:38AM 33.0722 -106.4203 300° West 378 435 38,000  Level Albuquerque Center
08:39AM 33.1247 -106.5281 300° West 378 435 38,000  Level Albuquerque Center
08:40AM 33.1761 -106.6383 299° West 380 437 38,000  Level Albuquerque Center
08:41AM 33.2289 -106.7469 300° West 381 438 38,000  Level Albuquerque Center
08:42AM 33.2806 -106.8550 300° West 379 436 38,000  Level Albuquerque Center
08:43AM 33.3317 -106.9636 299° West 377 434 38,000  Level Albuquerque Center
08:44AM 33.3828 -107.0697 300° West 374 430 38,000  Level Albuquerque Center
08:45AM 33.4325 -107.1772 299° West 371 427 38,000  Level Albuquerque Center
08:46AM 33.4936 -107.3031 300° West 370 426 38,000  Level Albuquerque Center
08:47AM 33.5442 -107.4128 299° West 372 428 38,000  Level Albuquerque Center
08:48AM 33.5944 -107.5192 300° West 373 429 38,000  Level Albuquerque Center
08:49AM 33.6461 -107.6253 300° West 371 427 38,000  Level Albuquerque Center
08:50AM 33.6953 -107.7336 299° West 371 427 38,000  Level Albuquerque Center
08:51AM 33.7447 -107.8411 299° West 370 426 38,000  Level Albuquerque Center
08:52AM 33.7947 -107.9486 299° West 370 426 38,000  Level Albuquerque Center
08:53AM 33.8439 -108.0550 299° West 367 422 38,000  Level Albuquerque Center
08:54AM 33.8992 -108.1731 299° West 369 425 38,000  Level Albuquerque Center
08:55AM 33.9489 -108.2794 299° West 369 425 38,000  Level Albuquerque Center
08:56AM 33.9983 -108.3867 299° West 370 426 38,000  Level Albuquerque Center
08:57AM 34.0481 -108.4964 299° West 373 429 38,000  Level Albuquerque Center
08:58AM 34.0978 -108.6042 299° West 375 432 38,000  Level Albuquerque Center
08:59AM 34.1453 -108.7103 298° West 370 426 38,000  Level Albuquerque Center
09:00AM 34.1936 -108.8181 298° West 368 423 38,000  Level Albuquerque Center
09:01AM 34.2428 -108.9242 299° West 367 422 38,000  Level Albuquerque Center
09:02AM 34.2911 -109.0317 299° West 367 422 38,000  Level Albuquerque Center
09:03AM 34.3481 -109.1581 299° West 367 422 38,000  Level Albuquerque Center
09:04AM 34.3958 -109.2639 299° West 369 425 38,000  Level Albuquerque Center
09:05AM 34.4425 -109.3728 297° West 374 430 38,000  Level Albuquerque Center
09:06AM 34.4983 -109.4958 299° West 374 430 38,000  Level Albuquerque Center
09:07AM 34.5461 -109.6047 298° West 377 434 38,000  Level Albuquerque Center
09:08AM 34.5939 -109.7125 298° West 378 435 38,000  Level Albuquerque Center
09:09AM 34.6483 -109.8383 298° West 377 434 38,000  Level Albuquerque Center
09:10AM 34.6953 -109.9444 298° West 374 430 38,000  Level Albuquerque Center
09:11AM 34.7417 -110.0486 298° West 368 423 38,000  Level Albuquerque Center
09:12AM 34.7978 -110.1792 298° West 382 440 38,000  Level Albuquerque Center
09:13AM 34.8458 -110.2869 299° West 383 441 38,000  Level Albuquerque Center
09:14AM 34.8914 -110.3942 297° West 378 435 38,000  Level Albuquerque Center
09:15AM 34.9428 -110.5178 297° West 369 425 38,000  Level Albuquerque Center
09:16AM 34.9872 -110.6214 298° West 364 419 38,000  Level Albuquerque Center
09:17AM 35.0311 -110.7264 297° West 364 419 38,000  Level Albuquerque Center
09:18AM 35.0753 -110.8583 292° West 382 440 38,000  Level Albuquerque Center
09:19AM 35.0983 -110.9753 284° West 374 430 38,000 -60 Level Albuquerque Center
09:20AM 35.1244 -111.0886 286° West 378 435 37,900 -780 Descending Albuquerque Center
09:21AM 35.1519 -111.2172 285° West 387 445 36,500 -1,380 Descending Albuquerque Center
09:22AM 35.1786 -111.3439 284° West 387 445 35,100 -1,560 Descending Albuquerque Center
09:23AM 35.2117 -111.4972 285° West 391 450 33,400 -1,620 Descending Albuquerque Center
09:24AM 35.2397 -111.6308 284° West 401 461 31,900 -1,440 Descending Albuquerque Center
09:25AM 35.2686 -111.7700 284° West 408 470 30,500 -960 Descending Albuquerque Center
09:26AM 35.2972 -111.9064 284° West 413 475 30,000 -300 Descending Albuquerque Center
09:27AM 35.3258 -112.0442 284° West 418 481 30,000  Level Albuquerque Center
09:28AM 35.3531 -112.1822 284° West 418 481 30,000  Level Albuquerque Center
09:29AM 35.3819 -112.3200 284° West 421 484 30,000  Level Albuquerque Center
09:30AM 35.4042 -112.4303 284° West 420 483 30,000  Level Los Angeles Center
09:31AM 35.4328 -112.5672 284° West 418 481 30,000  Level Los Angeles Center
09:32AM 35.4614 -112.7072 284° West 420 483 30,000  Level Los Angeles Center
09:33AM 35.4894 -112.8503 284° West 429 494 30,000  Level Los Angeles Center
09:34AM 35.5194 -113.0094 283° West 425 489 30,000  Level Los Angeles Center
09:35AM 35.5475 -113.1478 284° West 420 483 30,000  Level Los Angeles Center
09:36AM 35.5747 -113.2883 283° West 426 490 30,000 -300 Level Los Angeles Center
09:37AM 35.6031 -113.4325 284° West 434 499 29,500 -1,860 Descending Los Angeles Center
09:38AM 35.6300 -113.5736 283° West 428 493 26,300 -3,060 Descending Los Angeles Center
09:39AM 35.6489 -113.7119 280° West 414 476 23,300 -3,180 Descending Los Angeles Center
09:40AM 35.6714 -113.8744 280° West 405 466 19,900 -2,640 Descending Los Angeles Center
09:41AM 35.6900 -114.0036 280° West 390 449 17,900 -2,160 Descending Los Angeles Center
09:42AM 35.7078 -114.1319 280° West 383 441 15,500 -2,400 Descending Los Angeles Center
09:43AM 35.7256 -114.2642 279° West 375 432 13,100 -1,740 Descending Los Angeles Center
09:44AM 35.7367 -114.3808 277° West 348 400 12,000 -900 Descending Los Angeles Center
09:45AM 35.7414 -114.4164 279° West 337 388 12,000 -420 Level Los Angeles Center
09:45AM 35.7469 -114.4858 276° West 314 361 11,600 -900 Descending Los Angeles Center
09:46AM 35.7514 -114.5192 279° West 310 357 11,100 -1,380 Descending Los Angeles Center
09:46AM 35.7567 -114.5878 275° West 301 346 10,200 -1,140 Descending Los Angeles Center
09:47AM 35.7589 -114.6200 275° West 301 346 10,000 -240 Descending Los Angeles Center
09:47AM 35.7617 -114.6878 273° West 294 338 10,000  Level Los Angeles Center
09:48AM 35.7567 -114.7375 263° West 294 338 10,000  Level Los Angeles Center
09:48AM 35.7464 -114.7906 257° West 304 350 10,000  Level Los Angeles Center
09:49AM 35.7403 -114.8386 261° West 302 348 10,000  Level Los Angeles Center
09:50AM 35.7244 -114.9339 258° West 303 349 10,000  Level Los Angeles Center
09:50AM 35.7164 -114.9936 261° West 301 346 10,000  Level Los Angeles Center
09:51AM 35.7081 -115.0453 259° West 307 353 10,000 -300 Level Los Angeles Center
09:51AM 35.6978 -115.1167 260° West 303 349 9,700 -840 Descending Los Angeles Center
09:52AM 35.7058 -115.1439 290° West 296 341 9,200 -720 Descending Los Angeles Center
09:53AM 35.7264 -115.2075 292° West 290 334 9,000 -720 Descending Los Angeles Center
09:54AM 35.7794 -115.2500 327° Northwest 249 287 8,000 -720 Descending Los Angeles Center
09:55AM 35.8325 -115.2914 328° Northwest 234 269 7,600 -600 Descending Los Angeles Center
09:56AM 35.8842 -115.2800 10° North 213 245 6,800 -900 Descending Los Angeles Center
09:57AM 35.9319 -115.2508 26° Northeast 199 229 5,800 -900 Descending Los Angeles Center
09:58AM 35.9786 -115.2269 23° Northeast 175 201 5,100 -1,020 Descending Los Angeles Center
09:59AM 36.0239 -115.1989 27° Northeast 175 201 3,800 -1,260 Descending Los Angeles Center
09:59AM 36.0344 -115.1953 15° North 140 161 3,400 -1,080 Descending Los Angeles Center
10:00AM 36.0672 -115.1764 25° Northeast 128 147 2,400 -840 Descending Los Angeles Center
10:01AM 36.0889 -115.1619 28° Northeast 148 170 2,000 -600 Descending Los Angeles Center